Time;durP1;ratioP1;P1;durP2;ratioP2;P2;SDS_P1;SDS_P2;PMS_P1;PMS_P2;Temp;Humidity;BMP_temperature;BMP_pressure;BME280_temperature;BME280_humidity;BME280_pressure;Samples;Min_cycle;Max_cycle;Signal;HPM_P1;HPM_P2
2024/03/18 00:00:15;;;;;;;3.13;0.80;;;;;;;2.96;86.14;101778.66;5053158;28;20477;-70
2024/03/18 00:02:42;;;;;;;2.27;1.00;;;;;;;2.96;85.76;101778.66;5052786;28;20702;-70
2024/03/18 00:05:12;;;;;;;3.13;0.77;;;;;;;2.98;86.16;101781.16;5052869;28;20804;-70
2024/03/18 00:07:39;;;;;;;4.47;1.27;;;;;;;2.90;86.21;101784.09;5052847;28;20472;-70
2024/03/18 00:10:08;;;;;;;2.27;1.07;;;;;;;2.92;86.39;101782.00;5053107;28;20431;-70
2024/03/18 00:12:37;;;;;;;3.03;0.73;;;;;;;2.91;85.60;101783.06;5053010;28;20466;-70
2024/03/18 00:15:06;;;;;;;2.10;0.90;;;;;;;2.82;85.63;101776.34;5052751;28;20926;-70
2024/03/18 00:17:34;;;;;;;1.83;0.63;;;;;;;2.69;86.06;101770.06;5053065;28;20541;-70
2024/03/18 00:20:00;;;;;;;2.20;1.00;;;;;;;2.69;86.46;101772.75;5053416;28;20948;-70
2024/03/18 00:22:27;;;;;;;4.20;0.93;;;;;;;2.75;86.35;101776.44;5052508;28;20486;-70
2024/03/18 00:24:54;;;;;;;2.87;1.23;;;;;;;2.78;86.61;101775.97;5052908;28;20445;-70
2024/03/18 00:27:20;;;;;;;2.23;0.87;;;;;;;2.77;86.80;101775.16;5052585;28;20450;-70
2024/03/18 00:29:48;;;;;;;2.00;0.53;;;;;;;2.75;86.45;101771.88;5052894;28;21000;-70
2024/03/18 00:32:15;;;;;;;2.73;0.70;;;;;;;2.73;87.09;101773.13;5052848;28;20837;-70
2024/03/18 00:34:43;;;;;;;1.67;0.50;;;;;;;2.71;87.81;101764.53;5052902;28;20815;-70
2024/03/18 00:37:10;;;;;;;2.10;0.80;;;;;;;2.71;87.85;101765.34;5052841;28;20438;-70
2024/03/18 00:39:37;;;;;;;1.60;0.40;;;;;;;2.64;87.86;101769.09;5052938;28;20815;-70
2024/03/18 00:42:03;;;;;;;3.30;1.17;;;;;;;2.69;87.44;101766.59;5052472;28;20490;-70
2024/03/18 00:44:29;;;;;;;2.57;1.03;;;;;;;2.63;87.19;101770.97;5052972;28;20445;-70
2024/03/18 00:46:57;;;;;;;2.10;0.83;;;;;;;2.58;87.35;101760.09;5053199;28;20533;-70
2024/03/18 00:49:24;;;;;;;1.70;0.47;;;;;;;2.51;87.94;101768.16;5052786;28;20442;-71
2024/03/18 00:51:51;;;;;;;2.93;1.23;;;;;;;2.44;88.23;101771.94;5052393;28;20880;-71
2024/03/18 00:54:18;;;;;;;1.70;0.40;;;;;;;2.43;88.45;101772.97;5052314;28;20434;-72
2024/03/18 00:56:46;;;;;;;2.20;1.00;;;;;;;2.34;88.25;101768.91;5052682;28;20458;-72
2024/03/18 00:59:12;;;;;;;2.63;0.70;;;;;;;2.28;88.82;101765.25;5052689;28;20537;-72
2024/03/18 01:01:39;;;;;;;1.83;0.50;;;;;;;2.20;89.14;101768.19;5055877;28;20928;-72
2024/03/18 01:04:07;;;;;;;2.13;1.07;;;;;;;2.14;88.78;101769.06;5055989;28;20494;-72
2024/03/18 01:06:34;;;;;;;1.70;0.60;;;;;;;2.09;89.30;101761.69;5056096;28;20520;-72
2024/03/18 01:09:02;;;;;;;1.80;0.50;;;;;;;2.07;88.30;101758.41;5055785;28;20438;-72
2024/03/18 01:11:29;;;;;;;3.00;1.10;;;;;;;1.95;86.88;101749.47;5056043;28;20938;-72
2024/03/18 01:13:55;;;;;;;1.60;0.40;;;;;;;1.84;86.84;101744.78;5056139;28;20537;-72
2024/03/18 01:16:24;;;;;;;1.80;0.50;;;;;;;1.74;86.86;101748.75;5055794;28;20975;-72
2024/03/18 01:18:51;;;;;;;1.60;0.40;;;;;;;1.70;86.22;101752.88;5055897;28;20453;-72
2024/03/18 01:21:19;;;;;;;1.60;0.50;;;;;;;1.61;86.69;101751.47;5054414;28;20841;-72
2024/03/18 01:23:45;;;;;;;5.50;1.47;;;;;;;1.57;87.30;101758.28;5056052;28;20541;-72
2024/03/18 01:26:13;;;;;;;2.10;0.80;;;;;;;1.47;86.74;101749.91;5081076;22;20984;-67
2024/03/18 01:28:40;;;;;;;2.53;0.70;;;;;;;1.39;86.51;101737.59;5075440;28;20441;-67
2024/03/18 01:31:06;;;;;;;2.37;0.97;;;;;;;1.37;86.61;101750.31;5075684;28;20448;-67
2024/03/18 01:33:33;;;;;;;1.60;0.40;;;;;;;1.40;86.23;101741.09;5075391;28;20961;-67
2024/03/18 01:36:00;;;;;;;1.83;0.70;;;;;;;1.42;85.32;101744.38;5075630;28;20429;-67
2024/03/18 01:38:28;;;;;;;7.33;0.77;;;;;;;1.40;85.71;101741.91;5075587;28;20445;-67
2024/03/18 01:40:56;;;;;;;1.60;0.40;;;;;;;1.31;87.06;101750.38;5075234;28;20882;-67
2024/03/18 01:43:23;;;;;;;1.87;0.50;;;;;;;1.29;86.97;101749.78;5075285;28;20493;-67
2024/03/18 01:45:49;;;;;;;2.80;0.87;;;;;;;1.32;88.10;101735.97;5075421;28;20458;-66
2024/03/18 01:48:16;;;;;;;1.67;0.40;;;;;;;1.23;89.65;101738.88;5075423;28;20894;-66
2024/03/18 01:50:44;;;;;;;1.50;0.30;;;;;;;1.29;89.49;101739.91;5075459;28;20437;-66
2024/03/18 01:53:11;;;;;;;2.97;0.60;;;;;;;1.34;89.64;101732.09;5075218;28;20460;-66
2024/03/18 01:55:40;;;;;;;1.53;0.30;;;;;;;1.42;89.36;101734.53;5075333;28;20461;-66
2024/03/18 01:58:06;;;;;;;2.00;0.50;;;;;;;1.40;89.60;101725.06;5075484;28;20473;-66
2024/03/18 02:00:35;;;;;;;1.80;0.50;;;;;;;1.43;89.86;101722.00;5075194;28;20520;-66
2024/03/18 02:03:03;;;;;;;1.60;0.40;;;;;;;1.50;89.59;101718.22;5074740;28;21074;-67
2024/03/18 02:05:30;;;;;;;1.80;0.50;;;;;;;1.49;89.53;101710.44;5074671;28;20433;-67
2024/03/18 02:07:57;;;;;;;2.00;0.50;;;;;;;1.59;89.01;101701.97;5075017;28;20511;-67
2024/03/18 02:10:24;;;;;;;1.80;0.50;;;;;;;1.61;89.07;101702.59;5074907;28;20467;-67
2024/03/18 02:12:53;;;;;;;5.53;2.53;;;;;;;1.61;89.03;101699.94;5074040;28;20508;-67
2024/03/18 02:15:21;;;;;;;2.30;0.53;;;;;;;1.55;89.86;101696.28;5074781;28;20437;-66
2024/03/18 02:17:47;;;;;;;1.93;0.50;;;;;;;1.59;90.04;101699.31;5074731;28;20441;-67
2024/03/18 02:20:14;;;;;;;2.07;0.50;;;;;;;1.54;89.58;101699.94;5074675;28;20492;-67
2024/03/18 02:22:42;;;;;;;1.60;0.40;;;;;;;1.58;89.70;101692.34;5074555;28;20520;-67
2024/03/18 02:25:09;;;;;;;2.30;0.67;;;;;;;1.56;87.59;101689.88;5074669;28;20437;-67
2024/03/18 02:27:36;;;;;;;1.60;0.50;;;;;;;1.57;87.99;101682.69;5074594;28;20448;-67
2024/03/18 02:30:04;;;;;;;3.40;0.97;;;;;;;1.60;88.12;101688.44;5074512;28;20499;-67
2024/03/18 02:32:35;;;;;;;1.70;0.60;;;;;;;1.62;88.06;101686.34;5074084;28;20895;-67
2024/03/18 02:35:02;;;;;;;1.70;0.40;;;;;;;1.64;86.13;101683.47;5074498;28;20448;-66
2024/03/18 02:37:28;;;;;;;2.33;0.53;;;;;;;1.63;85.64;101681.81;5074372;28;20537;-66
2024/03/18 02:39:56;;;;;;;3.93;1.27;;;;;;;1.69;85.58;101670.31;5074332;28;20472;-66
2024/03/18 02:42:23;;;;;;;1.60;0.50;;;;;;;1.68;85.70;101672.16;5073860;28;20496;-66
2024/03/18 02:44:50;;;;;;;1.93;0.40;;;;;;;1.67;85.39;101667.00;5073915;28;21009;-66
2024/03/18 02:47:17;;;;;;;1.57;0.30;;;;;;;1.68;85.52;101669.50;5074158;28;20448;-67
2024/03/18 02:49:44;;;;;;;1.60;0.40;;;;;;;1.65;85.75;101664.56;5074270;28;20517;-66
2024/03/18 02:52:10;;;;;;;1.50;0.30;;;;;;;1.68;85.10;101664.16;5074033;28;20453;-67
2024/03/18 02:54:37;;;;;;;1.60;0.30;;;;;;;1.65;85.50;101661.91;5073712;28;21020;-67
2024/03/18 02:57:05;;;;;;;2.00;0.50;;;;;;;1.69;86.55;101655.09;5074034;28;20451;-66
2024/03/18 02:59:32;;;;;;;1.60;0.40;;;;;;;1.73;87.12;101655.50;5074334;28;20787;-66
2024/03/18 03:01:58;;;;;;;1.73;0.70;;;;;;;1.71;87.25;101650.34;5073804;28;20517;-66
2024/03/18 03:04:25;;;;;;;2.20;0.40;;;;;;;1.71;87.45;101653.03;5073882;28;20437;-66
2024/03/18 03:06:51;;;;;;;2.43;1.13;;;;;;;1.73;87.47;101650.16;5073955;28;20441;-67
2024/03/18 03:09:18;;;;;;;1.70;0.40;;;;;;;1.79;87.19;101648.47;5073822;28;20536;-66
2024/03/18 03:11:45;;;;;;;1.70;0.40;;;;;;;1.71;87.57;101650.34;5073819;28;20453;-66
2024/03/18 03:14:13;;;;;;;1.50;0.30;;;;;;;1.71;87.62;101647.69;5073693;28;20536;-67
2024/03/18 03:16:40;;;;;;;1.80;0.40;;;;;;;1.71;87.54;101652.19;5073818;28;20494;-67
2024/03/18 03:19:08;;;;;;;1.70;0.47;;;;;;;1.67;87.72;101643.78;5073339;28;20532;-67
2024/03/18 03:21:35;;;;;;;1.90;0.60;;;;;;;1.58;87.65;101655.78;5073687;28;20499;-65
2024/03/18 03:24:01;;;;;;;2.17;0.90;;;;;;;1.50;88.09;101650.69;5073484;28;20465;-65
2024/03/18 03:26:29;;;;;;;1.57;0.37;;;;;;;1.46;88.84;101654.81;5073359;28;20528;-65
2024/03/18 03:28:56;;;;;;;1.60;0.30;;;;;;;1.53;88.89;101642.25;5073681;28;20528;-65
2024/03/18 03:31:24;;;;;;;1.80;0.70;;;;;;;1.51;88.89;101647.00;5073902;28;20438;-65
2024/03/18 03:33:50;;;;;;;1.60;0.30;;;;;;;1.51;88.15;101652.34;5073428;28;20449;-64
2024/03/18 03:36:17;;;;;;;1.60;0.40;;;;;;;1.42;87.72;101650.97;5073188;28;20860;-64
2024/03/18 03:38:44;;;;;;;1.70;0.50;;;;;;;1.34;86.51;101652.03;5073419;28;20448;-66
2024/03/18 03:41:10;;;;;;;1.60;0.40;;;;;;;1.24;85.62;101639.13;5073421;28;20537;-65
2024/03/18 03:43:37;;;;;;;1.60;0.30;;;;;;;1.27;84.87;101643.22;5072949;28;20491;-66
2024/03/18 03:46:04;;;;;;;2.43;0.70;;;;;;;1.27;85.98;101645.88;5073412;28;20491;-66
2024/03/18 03:48:33;;;;;;;1.60;0.37;;;;;;;1.23;87.38;101642.81;5073145;28;20876;-66
2024/03/18 03:50:59;;;;;;;1.70;0.50;;;;;;;1.25;88.47;101642.63;5073381;28;20526;-66
2024/03/18 03:53:27;;;;;;;1.57;0.30;;;;;;;1.22;88.67;101646.53;5073002;28;21049;-66
2024/03/18 03:55:55;;;;;;;2.27;0.77;;;;;;;1.21;88.88;101644.88;5073348;28;20438;-66
2024/03/18 03:58:23;;;;;;;1.90;0.90;;;;;;;1.16;87.38;101643.91;5073047;28;20449;-66
2024/03/18 04:00:50;;;;;;;2.40;0.73;;;;;;;1.19;86.49;101640.78;5073469;28;20520;-66
2024/03/18 04:03:19;;;;;;;1.53;0.40;;;;;;;1.21;85.61;101641.41;5072821;28;21002;-66
2024/03/18 04:05:47;;;;;;;1.70;0.40;;;;;;;1.13;85.47;101644.31;5073202;28;20857;-66
2024/03/18 04:08:13;;;;;;;1.60;0.40;;;;;;;1.03;85.61;101644.78;5073175;28;20445;-66
2024/03/18 04:10:40;;;;;;;1.70;0.50;;;;;;;1.03;86.67;101644.78;5073192;28;20452;-66
2024/03/18 04:13:09;;;;;;;2.23;0.60;;;;;;;0.95;86.08;101645.81;5072796;28;20918;-66
2024/03/18 04:15:36;;;;;;;2.10;0.80;;;;;;;0.92;86.28;101642.75;5072927;28;20529;-66
2024/03/18 04:18:03;;;;;;;2.07;0.90;;;;;;;0.93;86.18;101644.38;5073134;28;20477;-66
2024/03/18 04:20:32;;;;;;;2.73;0.53;;;;;;;0.99;85.51;101646.22;5073277;28;20441;-66
2024/03/18 04:23:00;;;;;;;2.10;0.87;;;;;;;0.97;85.06;101649.09;5072625;28;20488;-66
2024/03/18 04:25:27;;;;;;;1.60;0.40;;;;;;;0.86;85.63;101640.94;5072974;28;20476;-66
2024/03/18 04:27:56;;;;;;;1.70;0.40;;;;;;;0.82;85.56;101640.53;5073080;28;20448;-66
2024/03/18 04:30:23;;;;;;;3.00;0.50;;;;;;;0.83;86.22;101646.69;5072641;28;20484;-66
2024/03/18 04:32:49;;;;;;;1.67;0.40;;;;;;;0.77;87.52;101639.53;5072890;28;20552;-66
2024/03/18 04:35:18;;;;;;;1.93;0.53;;;;;;;0.86;87.52;101638.25;5074235;28;20503;-66
2024/03/18 04:37:46;;;;;;;1.53;0.30;;;;;;;0.88;88.12;101636.19;5076413;28;20449;-67
2024/03/18 04:40:15;;;;;;;1.60;0.40;;;;;;;0.87;88.33;101637.22;5076552;28;20438;-66
2024/03/18 04:42:42;;;;;;;1.60;0.47;;;;;;;0.84;88.27;101640.31;5076067;28;21043;-66
2024/03/18 04:45:11;;;;;;;1.90;0.60;;;;;;;0.77;89.42;101642.19;5076526;28;20519;-66
2024/03/18 04:47:41;;;;;;;1.73;0.50;;;;;;;0.73;89.53;101639.13;5076510;28;20471;-66
2024/03/18 04:50:09;;;;;;;2.63;1.23;;;;;;;0.79;89.29;101630.28;5076805;28;20441;-66
2024/03/18 04:52:36;;;;;;;1.60;0.50;;;;;;;0.75;89.23;101637.06;5076285;28;20453;-66
2024/03/18 04:55:03;;;;;;;1.80;0.40;;;;;;;0.74;89.53;101635.41;5076357;28;20437;-66
2024/03/18 04:57:31;;;;;;;2.20;0.80;;;;;;;0.71;89.27;101630.53;5076265;28;20438;-65
2024/03/18 04:59:58;;;;;;;2.90;0.87;;;;;;;0.65;89.59;101637.50;5076001;28;20964;-65
2024/03/18 05:02:25;;;;;;;1.70;0.70;;;;;;;0.57;90.55;101645.72;5076042;28;20468;-66
2024/03/18 05:04:52;;;;;;;1.60;0.50;;;;;;;0.57;90.52;101647.56;5075844;28;21022;-66
2024/03/18 05:07:19;;;;;;;1.57;0.40;;;;;;;0.49;91.31;101652.09;5075932;28;20990;-65
2024/03/18 05:09:47;;;;;;;1.50;0.30;;;;;;;0.53;89.08;101649.00;5075749;28;20441;-66
2024/03/18 05:12:13;;;;;;;1.60;0.40;;;;;;;0.50;88.61;101644.91;5076070;28;20472;-66
2024/03/18 05:14:42;;;;;;;1.60;0.50;;;;;;;0.47;88.25;101640.00;5076354;28;20437;-66
2024/03/18 05:17:08;;;;;;;1.50;0.30;;;;;;;0.41;88.10;101633.66;5075992;28;20469;-66
2024/03/18 05:19:35;;;;;;;1.60;0.30;;;;;;;0.35;87.94;101637.13;5075960;28;20441;-65
2024/03/18 05:22:02;;;;;;;1.90;0.57;;;;;;;0.37;88.22;101650.28;5075921;28;20437;-65
2024/03/18 05:24:28;;;;;;;1.70;0.50;;;;;;;0.38;88.08;101647.38;5075457;28;21024;-65
2024/03/18 05:26:55;;;;;;;1.73;0.50;;;;;;;0.30;88.17;101649.44;5075652;28;20535;-65
2024/03/18 05:29:21;;;;;;;2.13;0.73;;;;;;;0.32;87.99;101653.56;5075829;28;20537;-65
2024/03/18 05:31:49;;;;;;;1.57;0.30;;;;;;;0.35;88.08;101649.63;5075341;28;20929;-65
2024/03/18 05:34:16;;;;;;;1.50;0.40;;;;;;;0.34;88.09;101645.34;5075307;28;20476;-66
2024/03/18 05:36:43;;;;;;;1.90;0.80;;;;;;;0.35;87.67;101646.97;5075917;28;20520;-66
2024/03/18 05:39:10;;;;;;;1.60;0.40;;;;;;;0.38;87.05;101642.06;5075190;28;20441;-66
2024/03/18 05:41:36;;;;;;;1.60;0.30;;;;;;;0.37;86.97;101636.94;5075482;28;20492;-66
2024/03/18 05:44:03;;;;;;;1.90;0.70;;;;;;;0.36;87.05;101633.47;5075364;28;20562;-66
2024/03/18 05:46:30;;;;;;;1.70;0.43;;;;;;;0.41;87.96;101635.50;5073828;28;20533;-66
2024/03/18 05:48:58;;;;;;;1.60;0.40;;;;;;;0.50;88.21;101637.75;5075412;28;20445;-65
2024/03/18 05:51:24;;;;;;;1.60;0.40;;;;;;;0.53;87.82;101641.81;5075342;28;20473;-65
2024/03/18 05:53:51;;;;;;;5.00;0.93;;;;;;;0.64;87.56;101635.03;5075253;28;21029;-65
2024/03/18 05:56:18;;;;;;;2.60;1.20;;;;;;;0.81;87.75;101638.09;5075175;28;20521;-65
2024/03/18 05:58:45;;;;;;;1.60;0.40;;;;;;;0.94;88.67;101633.53;5074855;28;20925;-65
2024/03/18 06:01:12;;;;;;;2.10;0.60;;;;;;;1.00;89.54;101632.66;5074969;28;20441;-65
2024/03/18 06:03:39;;;;;;;3.10;0.70;;;;;;;1.08;89.85;101636.94;5074988;28;20489;-64
2024/03/18 06:06:09;;;;;;;1.50;0.30;;;;;;;1.16;89.87;101634.03;5075450;28;20473;-64
2024/03/18 06:08:36;;;;;;;1.50;0.30;;;;;;;1.25;89.82;101638.09;5074777;28;20502;-64
2024/03/18 06:11:03;;;;;;;2.00;0.50;;;;;;;1.36;89.51;101636.59;5074701;28;20961;-64
2024/03/18 06:13:30;;;;;;;2.73;0.73;;;;;;;1.38;89.60;101626.53;5074913;28;20488;-64
2024/03/18 06:15:57;;;;;;;1.60;0.40;;;;;;;1.50;89.00;101629.31;5074822;28;20865;-64
2024/03/18 06:18:24;;;;;;;1.90;0.50;;;;;;;1.54;88.70;101630.53;5074690;28;20476;-64
2024/03/18 06:20:53;;;;;;;1.60;0.30;;;;;;;1.62;89.32;101627.63;5074397;28;20443;-65
2024/03/18 06:23:22;;;;;;;1.60;0.40;;;;;;;1.79;88.60;101633.25;5074714;28;20977;-65
2024/03/18 06:25:55;;;;;;;1.60;0.40;;;;;;;1.90;87.65;101635.22;5074241;28;20953;-65
2024/03/18 06:28:21;;;;;;;1.60;0.40;;;;;;;1.98;86.58;101637.63;5074677;28;20460;-65
2024/03/18 06:30:49;;;;;;;1.70;0.70;;;;;;;2.11;85.24;101634.03;5074571;28;20468;-66
2024/03/18 06:33:16;;;;;;;1.60;0.30;;;;;;;2.17;84.01;101630.50;5074139;28;20828;-64
2024/03/18 06:35:43;;;;;;;1.57;0.30;;;;;;;2.17;83.62;101635.84;5074517;28;20440;-65
2024/03/18 06:38:09;;;;;;;1.60;0.40;;;;;;;2.22;84.57;101638.66;5074504;28;20482;-64
2024/03/18 06:40:39;;;;;;;1.73;0.70;;;;;;;2.36;83.11;101634.00;5073963;28;20433;-64
2024/03/18 06:43:05;;;;;;;2.63;0.50;;;;;;;2.45;82.03;101631.88;5073880;28;20542;-64
2024/03/18 06:45:33;;;;;;;2.10;0.67;;;;;;;2.52;81.06;101637.94;5074365;28;20449;-64
2024/03/18 06:48:00;;;;;;;1.70;0.43;;;;;;;2.59;80.65;101641.38;5074162;28;20449;-65
2024/03/18 06:50:27;;;;;;;2.90;0.50;;;;;;;2.58;80.87;101631.72;5074242;28;20450;-66
2024/03/18 06:52:53;;;;;;;1.60;0.40;;;;;;;2.66;80.72;101638.66;5074137;28;20453;-66
2024/03/18 06:55:20;;;;;;;1.90;0.57;;;;;;;2.75;79.52;101632.78;5074096;28;20516;-66
2024/03/18 06:57:49;;;;;;;1.73;0.60;;;;;;;2.86;79.21;101633.88;5073668;28;20437;-66
2024/03/18 07:00:19;;;;;;;4.00;1.03;;;;;;;2.92;78.51;101642.88;5074034;28;20453;-65
2024/03/18 07:02:49;;;;;;;1.60;0.30;;;;;;;3.00;77.77;101624.66;5073985;28;20469;-65
2024/03/18 07:05:16;;;;;;;1.67;0.43;;;;;;;3.04;77.12;101625.03;5074196;28;20464;-64
2024/03/18 07:07:42;;;;;;;1.60;0.40;;;;;;;3.10;76.85;101624.13;5073785;28;20492;-66
2024/03/18 07:10:10;;;;;;;1.80;0.60;;;;;;;3.21;76.66;101628.72;5073520;28;20445;-66
2024/03/18 07:12:37;;;;;;;2.10;0.60;;;;;;;3.35;76.54;101626.69;5073403;28;20957;-66
2024/03/18 07:15:06;;;;;;;2.40;1.10;;;;;;;3.46;75.98;101622.41;5073498;28;20441;-65
2024/03/18 07:17:32;;;;;;;1.60;0.30;;;;;;;3.55;75.53;101629.09;5073408;28;20446;-65
2024/03/18 07:19:59;;;;;;;1.80;0.50;;;;;;;3.67;74.43;101619.19;5073981;28;20552;-65
2024/03/18 07:22:26;;;;;;;1.60;0.40;;;;;;;3.77;73.32;101619.47;5073344;28;21040;-68
2024/03/18 07:27:28;;;;;;;1.80;0.40;;;;;;;3.85;71.98;101614.81;5051835;28;20474;-71
2024/03/18 07:29:55;;;;;;;2.17;0.50;;;;;;;3.90;71.84;101617.63;5053811;28;20445;-70
2024/03/18 07:32:24;;;;;;;2.13;0.63;;;;;;;3.90;71.15;101620.31;5053777;28;20470;-69
2024/03/18 07:34:51;;;;;;;1.80;0.57;;;;;;;3.92;70.17;101618.22;5053551;28;20434;-72
2024/03/18 07:37:18;;;;;;;1.70;0.53;;;;;;;3.98;70.47;101617.28;5053455;28;20883;-71
2024/03/18 07:39:45;;;;;;;1.70;0.40;;;;;;;3.91;68.77;101625.44;5054049;28;20529;-71
2024/03/18 07:42:12;;;;;;;1.80;0.60;;;;;;;3.92;69.67;101619.03;5053815;28;20459;-70
2024/03/18 07:44:39;;;;;;;2.20;0.60;;;;;;;3.99;69.08;101616.25;5053573;28;20512;-70
2024/03/18 07:47:06;;;;;;;1.70;0.43;;;;;;;4.09;68.92;101619.16;5053779;28;20443;-70
2024/03/18 07:49:34;;;;;;;2.43;0.50;;;;;;;4.08;66.51;101622.91;5053687;28;20480;-69
2024/03/18 07:52:01;;;;;;;1.93;0.77;;;;;;;4.05;66.35;101624.16;5053507;28;20477;-69
2024/03/18 07:54:29;;;;;;;2.03;0.50;;;;;;;4.12;65.96;101615.19;5053263;28;20440;-68
2024/03/18 07:56:56;;;;;;;1.60;0.40;;;;;;;4.12;65.85;101618.72;5053385;28;20530;-68
2024/03/18 07:59:22;;;;;;;1.60;0.43;;;;;;;4.18;64.97;101615.09;5053341;28;20441;-68
2024/03/18 08:01:49;;;;;;;2.20;0.67;;;;;;;4.27;65.90;101612.88;5053410;28;20529;-69
2024/03/18 08:04:16;;;;;;;1.90;0.53;;;;;;;4.28;63.98;101612.63;5053375;28;20532;-67
2024/03/18 08:06:46;;;;;;;2.10;0.40;;;;;;;4.27;63.79;101611.00;5053429;28;20477;-67
2024/03/18 08:09:14;;;;;;;1.63;0.43;;;;;;;4.37;63.76;101614.97;5053519;28;20439;-65
2024/03/18 08:11:41;;;;;;;1.60;0.43;;;;;;;4.40;63.54;101607.28;5057096;28;20450;-67
2024/03/18 08:14:08;;;;;;;1.70;0.50;;;;;;;4.50;63.40;101595.94;5057242;28;20482;-67
2024/03/18 08:16:35;;;;;;;1.57;0.30;;;;;;;4.58;61.77;101600.13;5057356;28;20485;-66
2024/03/18 08:19:03;;;;;;;1.60;0.47;;;;;;;4.61;62.12;101603.19;5056905;28;20526;-66
2024/03/18 08:21:30;;;;;;;1.60;0.40;;;;;;;4.73;61.61;101595.91;5056884;28;20449;-66
2024/03/18 08:23:58;;;;;;;1.60;0.50;;;;;;;4.80;62.00;101606.50;5057376;28;20573;-69
2024/03/18 08:26:24;;;;;;;4.43;0.80;;;;;;;4.90;61.37;101609.41;5056697;28;20533;-66
2024/03/18 08:28:51;;;;;;;1.60;0.40;;;;;;;4.99;60.27;101599.91;5057523;28;20449;-68
2024/03/18 08:31:19;;;;;;;1.60;0.40;;;;;;;5.01;59.64;101597.00;5056993;28;20474;-66
2024/03/18 08:33:45;;;;;;;1.70;0.40;;;;;;;5.03;59.31;101587.66;5056860;28;20537;-67
2024/03/18 08:36:12;;;;;;;1.60;0.40;;;;;;;5.13;60.20;101588.88;5056652;28;21025;-67
2024/03/18 08:38:39;;;;;;;3.67;0.93;;;;;;;5.20;59.55;101594.94;5056695;28;20945;-67
2024/03/18 08:41:07;;;;;;;1.90;0.43;;;;;;;5.22;59.82;101585.59;5056637;28;20452;-67
2024/03/18 08:43:34;;;;;;;3.00;1.07;;;;;;;5.35;59.95;101589.03;5056320;28;20988;-67
2024/03/18 08:46:05;;;;;;;1.57;0.30;;;;;;;5.40;59.13;101597.16;5056765;28;20473;-66
2024/03/18 08:48:32;;;;;;;2.57;0.80;;;;;;;5.47;58.09;101593.28;5056852;28;20432;-66
2024/03/18 08:50:59;;;;;;;1.80;0.57;;;;;;;5.54;59.06;101599.34;5056977;28;20608;-67
2024/03/18 08:53:26;;;;;;;1.80;0.50;;;;;;;5.59;57.71;101595.94;5056601;28;20549;-67
2024/03/18 08:55:52;;;;;;;1.53;0.40;;;;;;;5.57;58.02;101589.97;5056353;28;20438;-67
2024/03/18 08:58:21;;;;;;;1.60;0.43;;;;;;;5.63;58.67;101596.25;5056673;28;20446;-67
2024/03/18 09:00:48;;;;;;;2.23;0.77;;;;;;;5.74;58.68;101587.28;5056184;28;20896;-67
2024/03/18 09:03:15;;;;;;;1.80;0.60;;;;;;;5.77;57.62;101590.31;5056361;28;20477;-67
2024/03/18 09:05:42;;;;;;;1.83;0.50;;;;;;;5.73;58.27;101589.16;5056263;28;20504;-67
2024/03/18 09:08:09;;;;;;;1.53;0.33;;;;;;;5.78;58.64;101586.56;5056395;28;20461;-67
2024/03/18 09:10:35;;;;;;;1.63;0.43;;;;;;;5.77;56.56;101592.19;5056277;28;20438;-67
2024/03/18 09:13:02;;;;;;;1.60;0.40;;;;;;;5.88;57.13;101591.28;5056167;28;20466;-67
2024/03/18 09:15:32;;;;;;;5.03;0.67;;;;;;;5.95;56.21;101581.22;5056268;28;20492;-67
2024/03/18 09:17:58;;;;;;;1.60;0.40;;;;;;;5.99;55.98;101585.03;5056318;28;20445;-67
2024/03/18 09:20:25;;;;;;;1.60;0.40;;;;;;;6.02;56.82;101581.88;5055523;28;20446;-67
2024/03/18 09:22:53;;;;;;;1.53;0.40;;;;;;;6.07;55.45;101583.81;5056010;28;20490;-67
2024/03/18 09:25:20;;;;;;;1.60;0.40;;;;;;;6.11;55.35;101584.97;5055515;28;21007;-66
2024/03/18 09:27:48;;;;;;;2.90;0.60;;;;;;;6.13;55.64;101579.34;5056081;28;20426;-67
2024/03/18 09:30:16;;;;;;;1.60;0.40;;;;;;;6.20;54.95;101574.59;5056052;28;20480;-67
2024/03/18 09:32:44;;;;;;;4.33;0.67;;;;;;;6.33;54.77;101582.31;5055825;28;20519;-67
2024/03/18 09:35:11;;;;;;;3.73;0.90;;;;;;;6.30;54.15;101582.81;5055544;28;20923;-67
2024/03/18 09:37:37;;;;;;;1.83;0.63;;;;;;;6.35;54.49;101582.06;5055980;28;20434;-67
2024/03/18 09:40:04;;;;;;;2.63;0.70;;;;;;;6.37;55.38;101577.22;5055436;28;21033;-67
2024/03/18 09:42:31;;;;;;;1.60;0.40;;;;;;;6.44;55.06;101577.88;5055956;28;20550;-67
2024/03/18 09:45:00;;;;;;;1.70;0.43;;;;;;;6.90;63.71;101567.69;5055194;28;20497;-69
2024/03/18 09:47:27;;;;;;;1.80;0.57;;;;;;;7.36;59.04;101570.88;5055445;28;20496;-67
2024/03/18 09:49:55;;;;;;;1.70;0.40;;;;;;;7.47;54.84;101576.09;5055330;28;20533;-67
2024/03/18 09:52:22;;;;;;;1.60;0.40;;;;;;;7.32;50.87;101573.25;5055419;28;20881;-67
2024/03/18 09:54:50;;;;;;;1.80;0.50;;;;;;;7.29;52.99;101569.19;5055553;28;20531;-67
2024/03/18 09:57:24;;;;;;;1.80;0.60;;;;;;;7.42;53.92;101572.53;5055092;28;20926;-67
2024/03/18 09:59:51;;;;;;;2.07;0.63;;;;;;;7.51;53.60;101577.19;5055360;28;20488;-68
2024/03/18 10:02:18;;;;;;;1.70;0.50;;;;;;;7.52;51.32;101568.03;5055344;28;20541;-68
2024/03/18 10:04:46;;;;;;;1.90;0.57;;;;;;;7.69;51.74;101567.09;5054920;28;20493;-70
2024/03/18 10:07:15;;;;;;;2.10;0.60;;;;;;;7.87;52.31;101557.81;5055309;28;20438;-64
2024/03/18 10:09:45;;;;;;;3.80;0.70;;;;;;;8.09;52.43;101567.41;5055374;28;20813;-67
2024/03/18 10:12:13;;;;;;;1.70;0.50;;;;;;;8.19;51.25;101560.44;5055120;28;20516;-65
2024/03/18 10:14:40;;;;;;;2.17;0.57;;;;;;;8.20;51.49;101562.91;5054861;28;20449;-66
2024/03/18 10:17:18;;;;;;;1.77;0.50;;;;;;;8.30;51.81;101557.53;5054905;28;20443;-66
2024/03/18 10:19:45;;;;;;;1.90;0.50;;;;;;;8.27;50.42;101558.06;5055034;28;20431;-67
2024/03/18 10:22:12;;;;;;;2.80;0.70;;;;;;;8.41;49.82;101552.22;5054458;28;20462;-66
2024/03/18 10:24:41;;;;;;;2.00;0.53;;;;;;;8.66;50.66;101560.44;5054707;28;20477;-66
2024/03/18 10:27:08;;;;;;;1.70;0.50;;;;;;;8.75;49.52;101563.44;5054443;28;20458;-67
2024/03/18 10:29:35;;;;;;;2.27;0.67;;;;;;;8.65;49.32;101553.44;5054930;28;20433;-66
2024/03/18 10:32:02;;;;;;;1.70;0.40;;;;;;;8.66;50.03;101552.34;5054495;28;20448;-66
2024/03/18 10:34:36;;;;;;;1.57;0.40;;;;;;;8.67;50.21;101553.97;5054200;28;20492;-66
2024/03/18 10:37:03;;;;;;;2.03;0.60;;;;;;;8.53;49.62;101550.13;5054347;28;20766;-67
2024/03/18 10:39:37;;;;;;;1.90;0.50;;;;;;;8.67;49.42;101555.84;5054661;28;20847;-66
2024/03/18 10:42:12;;;;;;;2.10;0.70;;;;;;;8.60;48.73;101553.41;5054398;28;20501;-66
2024/03/18 10:44:45;;;;;;;2.20;0.60;;;;;;;8.35;49.26;101544.06;5054179;28;20504;-66
2024/03/18 10:47:12;;;;;;;1.97;0.50;;;;;;;8.45;49.99;101547.94;5054543;28;20491;-68
2024/03/18 10:49:39;;;;;;;1.80;0.47;;;;;;;8.52;48.09;101548.50;5054212;28;20434;-66
2024/03/18 10:52:08;;;;;;;2.03;0.80;;;;;;;8.61;49.59;101541.53;5054023;28;20450;-66
2024/03/18 10:54:35;;;;;;;1.80;0.50;;;;;;;8.54;49.76;101541.78;5054397;28;20434;-65
2024/03/18 10:57:02;;;;;;;1.87;0.60;;;;;;;8.53;50.07;101534.75;5054617;28;20446;-66
2024/03/18 10:59:31;;;;;;;2.50;0.80;;;;;;;8.64;49.67;101545.59;5053959;28;20445;-69
2024/03/18 11:01:58;;;;;;;1.70;0.50;;;;;;;8.69;49.39;101535.63;5053846;28;20456;-67
2024/03/18 11:04:26;;;;;;;1.50;0.30;;;;;;;8.82;49.18;101535.13;5053682;28;20564;-67
2024/03/18 11:06:55;;;;;;;1.60;0.40;;;;;;;9.07;49.34;101534.38;5054088;28;20445;-67
2024/03/18 11:09:24;;;;;;;1.70;0.50;;;;;;;9.22;47.82;101528.19;5054113;28;20447;-67
2024/03/18 11:11:51;;;;;;;1.70;0.40;;;;;;;9.51;48.07;101525.75;5053709;28;20456;-67
2024/03/18 11:14:25;;;;;;;2.03;0.80;;;;;;;9.69;47.49;101531.69;5053976;28;20441;-67
2024/03/18 11:16:55;;;;;;;2.00;0.60;;;;;;;9.87;47.12;101528.44;5053890;28;20501;-67
2024/03/18 11:19:26;;;;;;;1.93;0.50;;;;;;;10.08;47.09;101527.31;5054209;28;20525;-67
2024/03/18 11:21:59;;;;;;;2.00;0.67;;;;;;;10.09;46.38;101525.41;5053618;28;20423;-67
2024/03/18 11:24:27;;;;;;;1.87;0.63;;;;;;;10.37;46.15;101526.75;5053729;28;20430;-67
2024/03/18 11:26:55;;;;;;;2.10;0.60;;;;;;;11.01;45.35;101516.94;5053433;28;20537;-67
2024/03/18 11:29:21;;;;;;;3.70;0.60;;;;;;;11.91;44.42;101531.97;5053976;28;20438;-67
2024/03/18 11:31:50;;;;;;;2.20;0.63;;;;;;;12.53;40.25;101517.44;5053661;28;20434;-67
2024/03/18 11:34:23;;;;;;;1.90;0.63;;;;;;;13.29;40.36;101518.31;5053635;28;20442;-67
2024/03/18 11:36:50;;;;;;;1.70;0.50;;;;;;;13.84;38.73;101515.75;5053414;28;20468;-67